createdAt,value
2018-05-29T00:02:19.076Z,6.67
2018-05-29T00:04:47.438Z,6.17
2018-05-29T00:07:15.049Z,6.30
2018-05-29T00:09:42.615Z,6.47
2018-05-29T00:12:11.027Z,6.93
2018-05-29T00:14:39.565Z,6.70
2018-05-29T00:17:07.965Z,6.73
2018-05-29T00:19:36.342Z,6.80
2018-05-29T00:22:03.910Z,7.10
2018-05-29T00:24:31.493Z,6.97
2018-05-29T00:26:59.894Z,7.30
2018-05-29T00:29:27.521Z,6.53
2018-05-29T00:31:55.102Z,6.63
2018-05-29T00:34:22.682Z,6.57
2018-05-29T00:36:51.073Z,6.60
2018-05-29T00:39:19.404Z,6.70
2018-05-29T00:41:47.769Z,6.43
2018-05-29T00:44:16.137Z,7.00
2018-05-29T00:46:43.726Z,6.63
2018-05-29T00:49:12.004Z,7.67
2018-05-29T00:51:39.618Z,7.27
2018-05-29T00:54:07.190Z,6.80
2018-05-29T00:56:35.585Z,6.60
2018-05-29T00:59:03.162Z,7.03
2018-05-29T01:01:31.605Z,6.07
2018-05-29T01:04:00.050Z,6.83
2018-05-29T01:06:28.645Z,7.67
2018-05-29T01:08:56.266Z,7.20
2018-05-29T01:11:24.774Z,6.73
2018-05-29T01:13:52.433Z,7.30
2018-05-29T01:16:20.107Z,6.43
2018-05-29T01:18:47.770Z,6.30
2018-05-29T01:21:15.346Z,6.23
2018-05-29T01:23:42.967Z,6.90
2018-05-29T01:26:10.553Z,7.03
2018-05-29T01:28:38.191Z,6.20
2018-05-29T01:31:05.769Z,6.60
2018-05-29T01:33:33.349Z,7.30
2018-05-29T01:36:00.999Z,6.77
2018-05-29T01:38:28.660Z,6.80
2018-05-29T01:40:56.934Z,7.50
2018-05-29T01:43:24.601Z,6.80
2018-05-29T01:45:52.213Z,6.87
2018-05-29T01:48:19.824Z,6.80
2018-05-29T01:50:47.443Z,6.83
2018-05-29T01:53:15.049Z,5.93
2018-05-29T01:55:42.620Z,6.30
2018-05-29T01:58:10.197Z,7.27
2018-05-29T02:00:37.781Z,6.77
2018-05-29T02:03:05.348Z,7.00
2018-05-29T02:05:32.926Z,7.00
2018-05-29T02:08:00.508Z,6.83
2018-05-29T02:10:28.090Z,7.97
2018-05-29T02:12:55.669Z,7.40
2018-05-29T02:15:23.350Z,6.50
2018-05-29T02:17:50.993Z,6.30
2018-05-29T02:20:18.569Z,7.30
2018-05-29T02:22:46.151Z,7.10
2018-05-29T02:25:13.726Z,6.33
2018-05-29T02:27:41.297Z,6.73
2018-05-29T02:30:08.873Z,7.80
2018-05-29T02:32:36.454Z,7.30
2018-05-29T02:35:04.040Z,6.07
2018-05-29T02:37:31.653Z,5.77
2018-05-29T02:39:59.309Z,6.97
2018-05-29T02:42:26.981Z,7.83
2018-05-29T02:44:54.558Z,7.60
2018-05-29T02:47:22.134Z,6.60
2018-05-29T02:49:49.709Z,7.10
2018-05-29T02:52:17.285Z,7.27
2018-05-29T02:54:44.858Z,7.20
2018-05-29T02:57:12.545Z,8.00
2018-05-29T02:59:40.132Z,7.23
2018-05-29T03:02:07.705Z,6.77
2018-05-29T03:04:35.282Z,6.80
2018-05-29T03:07:02.862Z,7.70
2018-05-29T03:09:30.653Z,7.20
2018-05-29T03:11:58.237Z,7.13
2018-05-29T03:14:25.853Z,7.50
2018-05-29T03:16:53.430Z,7.50
2018-05-29T03:19:21.049Z,7.40
2018-05-29T03:21:48.624Z,7.10
2018-05-29T03:24:16.254Z,6.90
2018-05-29T03:26:43.890Z,7.70
2018-05-29T03:29:11.509Z,7.73
2018-05-29T03:31:39.092Z,7.93
2018-05-29T03:34:06.719Z,7.57
2018-05-29T03:36:34.296Z,7.70
2018-05-29T03:39:02.036Z,7.20
2018-05-29T03:41:29.650Z,6.77
2018-05-29T03:43:57.229Z,7.63
2018-05-29T03:46:24.845Z,7.27
2018-05-29T03:48:52.544Z,7.47
2018-05-29T03:51:20.201Z,7.77
2018-05-29T03:53:47.909Z,7.60
2018-05-29T03:56:15.521Z,6.80
2018-05-29T03:58:43.098Z,7.90
2018-05-29T04:01:10.725Z,8.07
2018-05-29T04:03:39.033Z,8.30
2018-05-29T04:06:06.654Z,7.27
2018-05-29T04:08:34.233Z,7.97
2018-05-29T04:11:01.849Z,7.93
2018-05-29T04:13:29.431Z,7.07
2018-05-29T04:15:57.046Z,8.40
2018-05-29T04:18:24.626Z,7.60
2018-05-29T04:20:52.249Z,8.07
2018-05-29T04:23:19.829Z,7.10
2018-05-29T04:25:47.408Z,7.23
2018-05-29T04:28:14.984Z,6.60
2018-05-29T04:30:42.564Z,7.33
2018-05-29T04:33:10.175Z,7.53
2018-05-29T04:35:38.312Z,7.93
2018-05-29T04:38:05.941Z,7.87
2018-05-29T04:40:33.523Z,6.97
2018-05-29T04:43:01.146Z,7.37
2018-05-29T04:45:28.728Z,7.10
2018-05-29T04:47:56.345Z,7.70
2018-05-29T04:50:23.920Z,7.00
2018-05-29T04:52:51.541Z,7.27
2018-05-29T04:55:19.638Z,6.90
2018-05-29T04:57:47.317Z,7.17
2018-05-29T05:00:14.897Z,7.87
2018-05-29T05:02:42.476Z,6.97
2018-05-29T05:05:10.058Z,6.73
2018-05-29T05:07:37.665Z,6.87
2018-05-29T05:10:05.245Z,6.60
2018-05-29T05:12:32.867Z,7.43
2018-05-29T05:15:00.549Z,6.90
2018-05-29T05:17:28.166Z,6.27
2018-05-29T05:19:55.790Z,6.70
2018-05-29T05:22:23.409Z,7.07
2018-05-29T05:24:50.985Z,5.43
2018-05-29T05:27:18.566Z,6.70
2018-05-29T05:29:46.145Z,6.87
2018-05-29T05:32:13.726Z,6.60
2018-05-29T05:34:41.305Z,6.90
2018-05-29T05:37:08.878Z,5.53
2018-05-29T05:39:36.449Z,5.53
2018-05-29T05:42:04.033Z,6.43
2018-05-29T05:44:31.615Z,5.20
2018-05-29T05:46:59.196Z,6.00
2018-05-29T05:49:26.773Z,5.97
2018-05-29T05:51:54.349Z,5.90
2018-05-29T05:54:21.930Z,5.43
2018-05-29T05:56:49.595Z,6.20
2018-05-29T05:59:17.253Z,5.80
2018-05-29T06:01:44.922Z,5.57
2018-05-29T06:04:12.498Z,5.10
2018-05-29T06:06:40.180Z,5.23
2018-05-29T06:09:07.759Z,5.13
2018-05-29T06:11:35.387Z,4.60
2018-05-29T06:14:02.965Z,4.93
2018-05-29T06:16:30.553Z,5.40
2018-05-29T06:18:58.139Z,26.83
2018-05-29T06:21:25.726Z,5.47
2018-05-29T06:23:53.306Z,6.53
2018-05-29T06:26:20.879Z,6.10
2018-05-29T06:28:48.466Z,5.10
2018-05-29T06:31:16.049Z,4.70
2018-05-29T06:33:43.668Z,4.23
2018-05-29T06:36:12.164Z,5.00
2018-05-29T06:38:39.740Z,5.23
2018-05-29T06:41:07.350Z,5.03
2018-05-29T06:43:34.969Z,4.50
2018-05-29T06:46:02.549Z,4.90
2018-05-29T06:48:30.173Z,4.20
2018-05-29T06:50:57.755Z,5.73
2018-05-29T06:53:25.333Z,5.23
2018-05-29T06:55:53.032Z,4.47
2018-05-29T06:58:20.621Z,4.10
2018-05-29T07:00:48.197Z,4.37
2018-05-29T07:03:15.877Z,4.43
2018-05-29T07:05:43.463Z,4.90
2018-05-29T07:08:11.041Z,4.33
2018-05-29T07:10:38.928Z,6.50
2018-05-29T07:13:06.511Z,4.10
2018-05-29T07:15:34.093Z,3.83
2018-05-29T07:18:01.753Z,4.77
2018-05-29T07:20:29.374Z,4.33
2018-05-29T07:22:56.952Z,3.57
2018-05-29T07:25:24.569Z,3.80
2018-05-29T07:27:52.176Z,4.23
2018-05-29T07:30:19.800Z,3.90
2018-05-29T07:32:48.344Z,3.10
2018-05-29T07:35:27.438Z,3.00
2018-05-29T07:40:42.637Z,3.00
2018-05-29T07:43:10.218Z,3.33
2018-05-29T07:45:37.797Z,3.37
2018-05-29T07:48:05.369Z,3.47
2018-05-29T07:50:33.017Z,3.40
2018-05-29T07:53:00.595Z,3.70
2018-05-29T07:55:28.169Z,3.33
2018-05-29T07:57:55.746Z,2.87
2018-05-29T08:00:23.322Z,3.90
2018-05-29T08:02:50.894Z,2.53
2018-05-29T08:05:18.470Z,2.70
2018-05-29T08:07:46.054Z,3.80
2018-05-29T08:10:13.639Z,3.70
2018-05-29T08:12:41.217Z,2.70
2018-05-29T08:15:08.798Z,3.37
2018-05-29T08:17:36.381Z,3.17
2018-05-29T08:20:04.054Z,2.77
2018-05-29T08:22:31.646Z,2.73
2018-05-29T08:24:59.282Z,3.43
2018-05-29T08:27:26.863Z,3.13
2018-05-29T08:29:54.437Z,2.90
2018-05-29T08:32:22.011Z,3.00
2018-05-29T08:34:49.585Z,2.50
2018-05-29T08:37:17.154Z,3.43
2018-05-29T08:39:44.743Z,2.53
2018-05-29T08:42:12.337Z,2.50
2018-05-29T08:44:39.915Z,2.67
2018-05-29T08:47:07.494Z,3.23
2018-05-29T08:49:35.072Z,2.60
2018-05-29T08:52:02.651Z,3.03
2018-05-29T08:54:30.226Z,3.00
2018-05-29T08:56:57.806Z,3.07
2018-05-29T08:59:25.383Z,3.07
2018-05-29T09:01:52.958Z,3.10
2018-05-29T09:04:20.592Z,3.37
2018-05-29T09:06:48.214Z,3.63
2018-05-29T09:09:15.816Z,2.77
2018-05-29T09:11:43.386Z,3.43
2018-05-29T09:14:11.009Z,2.90
2018-05-29T09:16:38.614Z,3.07
2018-05-29T09:19:06.195Z,3.00
2018-05-29T09:21:33.785Z,3.40
2018-05-29T09:24:01.442Z,3.53
2018-05-29T09:26:29.062Z,3.00
2018-05-29T09:28:56.638Z,3.50
2018-05-29T09:31:24.210Z,3.60
2018-05-29T09:33:51.818Z,3.67
2018-05-29T09:36:20.125Z,3.10
2018-05-29T09:38:47.705Z,2.73
2018-05-29T09:41:15.283Z,3.63
2018-05-29T09:43:42.988Z,2.80
2018-05-29T09:46:10.569Z,2.97
2018-05-29T09:48:38.194Z,3.77
2018-05-29T09:51:05.767Z,4.40
2018-05-29T09:53:33.341Z,2.70
2018-05-29T09:56:00.919Z,3.33
2018-05-29T09:58:28.494Z,3.50
2018-05-29T10:00:56.077Z,2.80
2018-05-29T10:03:23.663Z,3.13
2018-05-29T10:05:51.242Z,3.20
2018-05-29T10:08:18.821Z,3.20
2018-05-29T10:10:46.422Z,2.87
2018-05-29T10:13:14.015Z,3.00
2018-05-29T10:15:41.609Z,3.70
2018-05-29T10:18:09.180Z,3.17
2018-05-29T10:20:36.792Z,3.43
2018-05-29T10:23:04.416Z,3.97
2018-05-29T10:25:32.033Z,3.07
2018-05-29T10:27:59.614Z,3.10
2018-05-29T10:30:27.186Z,3.60
2018-05-29T10:32:54.757Z,3.17
2018-05-29T10:35:22.326Z,3.57
2018-05-29T10:37:49.939Z,3.43
2018-05-29T10:40:17.514Z,3.97
2018-05-29T10:42:45.145Z,3.93
2018-05-29T10:45:12.724Z,3.70
2018-05-29T10:47:40.338Z,3.13
2018-05-29T10:50:07.909Z,3.60
2018-05-29T10:52:35.527Z,3.50
2018-05-29T10:55:03.155Z,3.93
2018-05-29T10:57:30.733Z,3.67
2018-05-29T10:59:58.369Z,3.40
2018-05-29T11:02:25.938Z,3.93
2018-05-29T11:04:53.520Z,4.77
2018-05-29T11:07:21.101Z,4.90
2018-05-29T11:09:48.678Z,3.80
2018-05-29T11:12:16.258Z,4.27
2018-05-29T11:14:43.875Z,4.50
2018-05-29T11:17:11.445Z,3.40
2018-05-29T11:19:39.065Z,4.50
2018-05-29T11:22:06.641Z,4.30
2018-05-29T11:24:34.223Z,4.17
2018-05-29T11:27:01.805Z,4.77
2018-05-29T11:29:29.381Z,4.33
2018-05-29T11:31:56.956Z,4.40
2018-05-29T11:34:24.540Z,4.70
2018-05-29T11:36:52.128Z,5.37
2018-05-29T11:39:19.702Z,5.67
2018-05-29T11:41:47.281Z,5.80
2018-05-29T11:44:14.869Z,5.17
2018-05-29T11:46:42.447Z,4.60
2018-05-29T11:49:10.026Z,4.80
2018-05-29T11:51:37.601Z,5.50
2018-05-29T11:54:05.215Z,6.60
2018-05-29T11:56:32.792Z,5.10
2018-05-29T11:59:00.405Z,6.13
2018-05-29T12:01:27.987Z,4.73
2018-05-29T12:03:56.407Z,5.30
2018-05-29T12:06:23.985Z,4.10
2018-05-29T12:08:51.568Z,4.60
2018-05-29T12:11:19.142Z,4.70
2018-05-29T12:13:46.721Z,4.63
2018-05-29T12:16:14.362Z,4.53
2018-05-29T12:18:41.932Z,5.30
2018-05-29T12:21:09.511Z,4.20
2018-05-29T12:23:37.121Z,4.93
2018-05-29T12:26:04.724Z,5.00
2018-05-29T12:28:32.297Z,4.13
2018-05-29T12:30:59.945Z,4.43
2018-05-29T12:33:27.518Z,4.80
2018-05-29T12:35:55.136Z,5.30
2018-05-29T12:38:22.712Z,5.20
2018-05-29T12:40:50.286Z,5.00
2018-05-29T12:43:17.901Z,4.60
2018-05-29T12:45:45.486Z,5.07
2018-05-29T12:48:13.959Z,4.73
2018-05-29T12:50:41.531Z,4.80
2018-05-29T12:53:09.105Z,4.17
2018-05-29T12:55:36.678Z,4.27
2018-05-29T12:58:04.249Z,4.93
2018-05-29T13:00:31.828Z,5.20
2018-05-29T13:02:59.408Z,4.30
2018-05-29T13:05:27.020Z,5.27
2018-05-29T13:07:54.585Z,4.43
2018-05-29T13:10:22.159Z,4.43
2018-05-29T13:12:49.769Z,5.40
2018-05-29T13:15:17.379Z,4.50
2018-05-29T13:17:44.946Z,5.10
2018-05-29T13:20:12.520Z,4.67
2018-05-29T13:22:40.090Z,4.47
2018-05-29T13:25:07.673Z,5.63
2018-05-29T13:27:35.259Z,4.87
2018-05-29T13:30:02.837Z,4.33
2018-05-29T13:32:30.603Z,4.90
2018-05-29T13:34:58.157Z,5.20
2018-05-29T13:37:25.742Z,4.07
2018-05-29T13:39:53.317Z,4.57
2018-05-29T13:42:20.897Z,4.70
2018-05-29T13:44:48.521Z,4.70
2018-05-29T13:47:16.105Z,4.80
2018-05-29T13:49:43.683Z,5.23
2018-05-29T13:52:12.083Z,5.23
2018-05-29T13:54:39.657Z,4.77
2018-05-29T13:57:07.237Z,5.50
2018-05-29T13:59:34.852Z,5.57
2018-05-29T14:02:02.432Z,5.03
2018-05-29T14:04:30.038Z,5.10
2018-05-29T14:06:57.617Z,6.00
2018-05-29T14:09:25.207Z,4.90
2018-05-29T14:11:52.825Z,4.90
2018-05-29T14:14:20.401Z,5.03
2018-05-29T14:16:47.975Z,4.73
2018-05-29T14:19:15.553Z,5.57
2018-05-29T14:21:43.169Z,4.80
2018-05-29T14:24:10.745Z,5.33
2018-05-29T14:26:38.324Z,4.93
2018-05-29T14:29:05.898Z,4.50
2018-05-29T14:31:33.530Z,4.77
2018-05-29T14:34:01.098Z,5.00
2018-05-29T14:36:28.675Z,5.20
2018-05-29T14:38:56.246Z,4.63
2018-05-29T14:41:23.820Z,4.50
2018-05-29T14:43:51.447Z,4.87
2018-05-29T14:46:19.008Z,5.10
2018-05-29T14:48:46.629Z,4.90
2018-05-29T14:51:14.206Z,4.00
2018-05-29T14:53:41.826Z,4.57
2018-05-29T14:56:09.410Z,4.40
2018-05-29T14:58:37.024Z,4.73
2018-05-29T15:01:04.598Z,5.33
2018-05-29T15:03:32.169Z,4.70
2018-05-29T15:05:59.749Z,5.20
2018-05-29T15:08:27.325Z,5.10
2018-05-29T15:10:54.907Z,4.27
2018-05-29T15:13:22.489Z,4.70
2018-05-29T15:15:50.079Z,4.77
2018-05-29T15:18:17.658Z,4.50
2018-05-29T15:20:45.274Z,4.63
2018-05-29T15:23:12.853Z,5.57
2018-05-29T15:25:40.472Z,4.87
2018-05-29T15:28:08.047Z,4.63
2018-05-29T15:30:35.661Z,4.60
2018-05-29T15:33:03.251Z,4.30
2018-05-29T15:35:30.863Z,3.60
2018-05-29T15:37:58.433Z,4.90
2018-05-29T15:40:26.024Z,15.47
2018-05-29T15:42:53.637Z,5.80
2018-05-29T15:45:21.233Z,5.27
2018-05-29T15:47:48.870Z,4.70
2018-05-29T15:50:16.449Z,4.23
2018-05-29T15:52:44.113Z,4.70
2018-05-29T15:55:11.690Z,5.00
2018-05-29T15:57:39.370Z,4.83
2018-05-29T16:00:06.950Z,4.93
2018-05-29T16:02:34.574Z,5.00
2018-05-29T16:05:02.157Z,4.90
2018-05-29T16:07:29.730Z,5.17
2018-05-29T16:09:57.309Z,4.53
2018-05-29T16:12:24.925Z,4.43
2018-05-29T16:14:52.591Z,5.30
2018-05-29T16:17:20.215Z,5.17
2018-05-29T16:19:47.802Z,6.07
2018-05-29T16:22:15.377Z,6.50
2018-05-29T16:24:42.981Z,5.77
2018-05-29T16:27:10.557Z,5.47
2018-05-29T16:29:38.129Z,4.93
2018-05-29T16:32:05.705Z,4.90
2018-05-29T16:34:33.304Z,4.90
2018-05-29T16:37:00.916Z,5.37
2018-05-29T16:39:28.605Z,4.37
2018-05-29T16:41:56.334Z,4.13
2018-05-29T16:44:23.996Z,4.97
2018-05-29T16:46:51.569Z,4.23
2018-05-29T16:49:19.262Z,5.07
2018-05-29T16:51:46.885Z,4.13
2018-05-29T16:54:14.549Z,4.70
2018-05-29T16:56:42.136Z,4.37
2018-05-29T16:59:09.723Z,4.13
2018-05-29T17:01:37.369Z,4.43
2018-05-29T17:04:04.993Z,3.20
2018-05-29T17:06:32.662Z,3.10
2018-05-29T17:09:00.322Z,3.40
2018-05-29T17:11:27.940Z,3.50
2018-05-29T17:13:55.522Z,2.90
2018-05-29T17:16:23.210Z,3.60
2018-05-29T17:18:50.877Z,3.37
2018-05-29T17:21:18.535Z,2.93
2018-05-29T17:23:46.197Z,3.50
2018-05-29T17:26:13.914Z,3.03
2018-05-29T17:28:41.533Z,3.23
2018-05-29T17:31:09.186Z,2.83
2018-05-29T17:33:37.129Z,3.40
2018-05-29T17:36:04.771Z,4.30
2018-05-29T17:38:32.397Z,3.10
2018-05-29T17:40:59.976Z,2.97
2018-05-29T17:43:27.605Z,3.03
2018-05-29T17:45:55.301Z,2.80
2018-05-29T17:48:22.930Z,2.80
2018-05-29T17:50:50.697Z,3.00
2018-05-29T17:53:18.277Z,2.43
2018-05-29T17:55:45.857Z,3.00
2018-05-29T17:58:13.434Z,2.70
2018-05-29T18:00:41.022Z,2.70
2018-05-29T18:03:08.602Z,3.13
2018-05-29T18:05:36.265Z,3.10
2018-05-29T18:08:03.850Z,3.20
2018-05-29T18:10:31.428Z,3.40
2018-05-29T18:12:59.005Z,3.47
2018-05-29T18:15:26.585Z,2.93
2018-05-29T18:17:54.273Z,2.90
2018-05-29T18:20:21.893Z,2.90
2018-05-29T18:22:49.492Z,2.90
2018-05-29T18:25:17.073Z,2.80
2018-05-29T18:27:44.658Z,2.87
2018-05-29T18:30:12.293Z,3.07
2018-05-29T18:32:39.871Z,3.07
2018-05-29T18:35:07.508Z,3.07
2018-05-29T18:37:35.094Z,3.50
2018-05-29T18:40:02.674Z,3.30
2018-05-29T18:42:30.294Z,3.60
2018-05-29T18:44:57.885Z,3.60
2018-05-29T18:47:25.457Z,3.20
2018-05-29T18:49:53.074Z,3.60
2018-05-29T18:52:20.736Z,2.83
2018-05-29T18:54:48.320Z,3.00
2018-05-29T18:57:15.906Z,3.53
2018-05-29T18:59:43.530Z,2.60
2018-05-29T19:02:11.228Z,3.17
2018-05-29T19:04:38.806Z,3.07
2018-05-29T19:07:06.426Z,3.23
2018-05-29T19:09:34.006Z,3.07
2018-05-29T19:12:01.638Z,3.23
2018-05-29T19:14:31.153Z,3.10
2018-05-29T19:16:58.832Z,3.23
2018-05-29T19:19:26.480Z,3.00
2018-05-29T19:21:54.170Z,3.00
2018-05-29T19:24:21.796Z,3.20
2018-05-29T19:26:49.381Z,2.70
2018-05-29T19:29:16.969Z,3.00
2018-05-29T19:31:44.597Z,3.13
2018-05-29T19:34:12.172Z,2.80
2018-05-29T19:36:39.758Z,3.50
2018-05-29T19:39:07.337Z,3.40
2018-05-29T19:41:34.918Z,3.40
2018-05-29T19:44:02.508Z,3.70
2018-05-29T19:46:30.095Z,4.43
2018-05-29T19:48:57.718Z,3.20
2018-05-29T19:51:25.293Z,3.03
2018-05-29T19:53:52.879Z,3.37
2018-05-29T19:56:20.498Z,3.60
2018-05-29T19:58:48.074Z,3.47
2018-05-29T20:01:15.674Z,3.47
2018-05-29T20:03:43.253Z,3.10
2018-05-29T20:06:10.974Z,3.47
2018-05-29T20:08:38.816Z,3.17
2018-05-29T20:11:06.441Z,3.67
2018-05-29T20:13:34.018Z,3.43
2018-05-29T20:16:01.697Z,3.03
2018-05-29T20:18:29.894Z,3.00
2018-05-29T20:20:57.669Z,3.33
2018-05-29T20:23:25.250Z,3.13
2018-05-29T20:25:52.830Z,3.77
2018-05-29T20:28:20.453Z,3.00
2018-05-29T20:30:48.052Z,3.63
2018-05-29T20:33:15.639Z,4.43
2018-05-29T20:35:43.258Z,3.60
2018-05-29T20:38:11.438Z,3.40
2018-05-29T20:40:39.149Z,3.23
2018-05-29T20:43:06.843Z,3.27
2018-05-29T20:45:34.422Z,3.60
2018-05-29T20:48:02.044Z,3.10
2018-05-29T20:50:29.622Z,3.50
2018-05-29T20:52:57.241Z,3.60
2018-05-29T20:55:24.852Z,5.00
2018-05-29T20:57:52.474Z,3.07
2018-05-29T21:00:20.092Z,2.83
2018-05-29T21:02:47.679Z,3.40
2018-05-29T21:05:15.312Z,3.80
2018-05-29T21:07:42.891Z,3.33
2018-05-29T21:10:10.490Z,3.83
2018-05-29T21:12:38.153Z,3.67
2018-05-29T21:15:05.766Z,3.10
2018-05-29T21:17:33.387Z,3.40
2018-05-29T21:20:01.024Z,3.73
2018-05-29T21:22:28.602Z,3.33
2018-05-29T21:24:56.266Z,3.03
2018-05-29T21:27:23.840Z,3.67
2018-05-29T21:29:53.505Z,3.20
2018-05-29T21:32:21.078Z,3.80
2018-05-29T21:34:48.658Z,2.97
2018-05-29T21:37:16.322Z,3.30
2018-05-29T21:39:43.982Z,3.50
2018-05-29T21:42:11.562Z,3.30
2018-05-29T21:44:39.197Z,3.50
2018-05-29T21:47:06.779Z,3.47
2018-05-29T21:49:34.355Z,3.50
2018-05-29T21:52:02.085Z,3.33
2018-05-29T21:54:29.723Z,3.47
2018-05-29T21:56:57.417Z,3.80
2018-05-29T21:59:25.080Z,3.70
2018-05-29T22:01:52.742Z,3.47
2018-05-29T22:04:20.369Z,4.03
2018-05-29T22:06:47.953Z,3.30
2018-05-29T22:09:15.530Z,4.90
2018-05-29T22:11:43.113Z,3.87
2018-05-29T22:14:10.736Z,3.93
2018-05-29T22:16:39.145Z,4.57
2018-05-29T22:19:06.778Z,3.67
2018-05-29T22:21:34.468Z,4.00
2018-05-29T22:24:02.125Z,3.53
2018-05-29T22:26:29.710Z,4.30
2018-05-29T22:28:57.337Z,3.67
2018-05-29T22:31:25.737Z,4.57
2018-05-29T22:33:53.313Z,3.97
2018-05-29T22:36:20.901Z,3.60
2018-05-29T22:38:48.481Z,4.13
2018-05-29T22:41:16.166Z,4.20
2018-05-29T22:43:43.741Z,3.80
2018-05-29T22:46:11.329Z,3.83
2018-05-29T22:48:38.953Z,3.90
2018-05-29T22:51:06.624Z,3.60
2018-05-29T22:53:34.204Z,4.23
2018-05-29T22:56:01.781Z,3.17
2018-05-29T22:58:29.358Z,3.43
2018-05-29T23:00:56.935Z,3.93
2018-05-29T23:03:24.529Z,4.37
2018-05-29T23:05:52.117Z,4.20
2018-05-29T23:08:19.692Z,3.63
2018-05-29T23:10:47.273Z,3.90
2018-05-29T23:13:14.865Z,4.13
2018-05-29T23:15:42.478Z,4.20
2018-05-29T23:18:10.149Z,5.00
2018-05-29T23:20:37.807Z,4.33
2018-05-29T23:23:05.381Z,4.13
2018-05-29T23:25:32.997Z,4.63
2018-05-29T23:28:00.642Z,3.73
2018-05-29T23:30:28.217Z,4.50
2018-05-29T23:32:55.794Z,4.03
2018-05-29T23:35:23.377Z,4.43
2018-05-29T23:37:50.992Z,4.60
2018-05-29T23:40:19.414Z,4.23
2018-05-29T23:42:47.030Z,4.23
2018-05-29T23:45:14.690Z,3.73
2018-05-29T23:47:42.352Z,3.97
2018-05-29T23:50:09.933Z,3.97
2018-05-29T23:52:37.559Z,4.60
2018-05-29T23:55:05.134Z,4.80
2018-05-29T23:57:32.713Z,4.90
